createdAt,value
2023-11-18T00:01:17.157Z,97.67
2023-11-18T00:03:47.917Z,97.79
2023-11-18T00:06:21.284Z,98.68
2023-11-18T00:08:51.799Z,98.19
2023-11-18T00:11:22.405Z,98.84
2023-11-18T00:13:53.215Z,99.03
2023-11-18T00:16:23.865Z,99.64
2023-11-18T00:18:54.716Z,98.93
2023-11-18T00:21:28.137Z,99.00
2023-11-18T00:23:59.122Z,99.36
2023-11-18T00:26:30.661Z,99.96
2023-11-18T00:29:03.639Z,100.00
2023-11-18T00:31:34.415Z,100.00
2023-11-18T00:34:05.068Z,100.00
2023-11-18T00:36:38.199Z,100.00
2023-11-18T00:39:08.925Z,100.00
2023-11-18T00:41:39.474Z,100.00
2023-11-18T00:44:11.293Z,100.00
2023-11-18T00:46:41.970Z,100.00
2023-11-18T00:49:13.092Z,100.00
2023-11-18T00:51:46.286Z,99.88
2023-11-18T00:54:16.850Z,99.89
2023-11-18T00:56:47.706Z,100.00
2023-11-18T00:59:19.620Z,99.68
2023-11-18T01:01:50.687Z,98.76
2023-11-18T01:04:21.419Z,99.27
2023-11-18T01:06:54.579Z,98.66
2023-11-18T01:09:26.485Z,98.17
2023-11-18T01:12:07.799Z,98.33
2023-11-18T01:14:40.962Z,98.87
2023-11-18T01:17:11.810Z,98.70
2023-11-18T01:19:42.533Z,98.08
2023-11-18T01:22:15.806Z,99.27
2023-11-18T01:24:46.597Z,98.74
2023-11-18T01:27:17.463Z,99.04
2023-11-18T01:29:48.147Z,98.65
2023-11-18T01:32:18.811Z,99.00
2023-11-18T01:34:51.785Z,98.61
2023-11-18T01:37:25.897Z,98.79
2023-11-18T01:39:56.412Z,98.83
2023-11-18T01:42:27.269Z,98.97
2023-11-18T01:44:58.101Z,98.98
2023-11-18T01:47:28.755Z,99.67
2023-11-18T01:49:59.486Z,99.91
2023-11-18T01:52:33.510Z,99.24
2023-11-18T01:55:05.079Z,99.37
2023-11-18T01:57:36.474Z,99.01
2023-11-18T02:00:09.059Z,98.99
2023-11-18T02:02:45.189Z,98.37
2023-11-18T02:05:18.009Z,98.42
2023-11-18T02:07:51.481Z,98.17
2023-11-18T02:10:22.206Z,98.32
2023-11-18T02:13:07.269Z,98.13
2023-11-18T02:15:39.587Z,98.32
2023-11-18T02:18:12.979Z,98.24
2023-11-18T02:20:44.473Z,97.85
2023-11-18T02:23:18.560Z,97.40
2023-11-18T02:25:52.439Z,97.04
2023-11-18T02:28:23.686Z,97.82
2023-11-18T02:30:55.814Z,98.05
2023-11-18T02:33:41.488Z,98.19
2023-11-18T02:36:19.277Z,98.13
2023-11-18T02:38:56.360Z,98.24
2023-11-18T02:41:32.280Z,98.37
2023-11-18T02:44:03.216Z,98.00
2023-11-18T02:46:35.169Z,98.37
2023-11-18T02:49:06.579Z,98.44
2023-11-18T02:51:40.773Z,98.55
2023-11-18T02:54:12.513Z,98.62
2023-11-18T02:56:45.602Z,98.27
2023-11-18T02:59:16.134Z,97.78
2023-11-18T03:01:46.869Z,98.42
2023-11-18T03:04:20.511Z,98.17
2023-11-18T03:06:51.667Z,98.62
2023-11-18T03:09:22.537Z,98.24
2023-11-18T03:11:56.284Z,98.05
2023-11-18T03:14:26.877Z,98.15
2023-11-18T03:16:57.581Z,97.44
2023-11-18T03:19:28.169Z,96.88
2023-11-18T03:21:59.440Z,97.14
2023-11-18T03:24:29.720Z,96.98
2023-11-18T03:27:03.081Z,97.14
2023-11-18T03:29:33.591Z,97.34
2023-11-18T03:32:06.683Z,97.48
2023-11-18T03:34:37.847Z,97.61
2023-11-18T03:37:08.448Z,98.01
2023-11-18T03:39:39.034Z,98.33
2023-11-18T03:42:12.285Z,98.19
2023-11-18T03:44:42.858Z,98.07
2023-11-18T03:47:13.583Z,98.51
2023-11-18T03:49:44.267Z,98.30
2023-11-18T03:52:14.859Z,97.80
2023-11-18T03:54:45.886Z,97.53
2023-11-18T03:57:19.157Z,97.89
2023-11-18T03:59:49.668Z,97.87
2023-11-18T04:02:20.253Z,97.22
2023-11-18T04:04:51.201Z,97.11
2023-11-18T04:07:23.155Z,97.56
2023-11-18T04:09:53.654Z,97.50
2023-11-18T04:12:28.078Z,97.06
2023-11-18T04:14:58.576Z,96.82
2023-11-18T04:17:30.275Z,96.35
2023-11-18T04:20:00.926Z,96.86
2023-11-18T04:22:32.168Z,96.91
2023-11-18T04:25:02.747Z,97.14
2023-11-18T04:27:35.938Z,97.75
2023-11-18T04:30:06.710Z,97.71
2023-11-18T04:32:37.854Z,97.32
2023-11-18T04:35:11.396Z,97.27
2023-11-18T04:37:44.861Z,97.11
2023-11-18T04:40:16.914Z,97.12
2023-11-18T04:42:50.007Z,96.93
2023-11-18T04:45:20.867Z,96.66
2023-11-18T04:47:53.273Z,96.51
2023-11-18T04:50:23.920Z,96.21
2023-11-18T04:52:54.487Z,96.41
2023-11-18T04:55:25.363Z,96.88
2023-11-18T04:57:58.760Z,96.41
2023-11-18T05:00:29.289Z,96.10
2023-11-18T05:02:59.983Z,96.73
2023-11-18T05:05:30.769Z,96.85
2023-11-18T05:08:01.424Z,96.04
2023-11-18T05:10:32.024Z,95.87
2023-11-18T05:13:05.293Z,95.32
2023-11-18T05:15:38.597Z,95.08
2023-11-18T05:18:12.929Z,95.73
2023-11-18T05:20:43.501Z,95.64
2023-11-18T05:23:14.383Z,95.99
2023-11-18T05:25:47.295Z,96.27
2023-11-18T05:28:21.204Z,96.85
2023-11-18T05:30:52.060Z,97.12
2023-11-18T05:33:22.761Z,96.96
2023-11-18T05:35:53.728Z,97.01
2023-11-18T05:38:27.806Z,96.91
2023-11-18T05:41:02.456Z,96.36
2023-11-18T05:43:41.444Z,96.16
2023-11-18T05:46:27.464Z,95.81
2023-11-18T05:48:58.535Z,95.66
2023-11-18T05:51:30.737Z,95.62
2023-11-18T05:54:01.280Z,95.55
2023-11-18T05:56:33.251Z,95.39
2023-11-18T05:59:07.089Z,94.87
2023-11-18T06:01:38.779Z,94.78
2023-11-18T06:04:10.500Z,94.76
2023-11-18T06:06:41.216Z,95.00
2023-11-18T06:09:21.945Z,94.38
2023-11-18T06:11:54.870Z,94.11
2023-11-18T06:14:28.101Z,93.76
2023-11-18T06:17:00.905Z,94.08
2023-11-18T06:19:31.438Z,93.52
2023-11-18T06:22:01.931Z,94.08
2023-11-18T06:24:32.553Z,94.22
2023-11-18T06:27:03.115Z,97.40
2023-11-18T06:29:36.315Z,96.37
2023-11-18T06:32:07.743Z,95.02
2023-11-18T06:34:38.824Z,95.68
2023-11-18T06:37:09.425Z,94.82
2023-11-18T06:39:41.263Z,95.59
2023-11-18T06:42:13.334Z,94.60
2023-11-18T06:44:46.441Z,94.49
2023-11-18T06:47:20.049Z,94.03
2023-11-18T06:49:50.946Z,94.94
2023-11-18T06:52:22.495Z,94.72
2023-11-18T06:54:53.853Z,94.03
2023-11-18T06:57:24.391Z,93.84
2023-11-18T06:59:57.579Z,93.84
2023-11-18T07:02:28.210Z,93.84
2023-11-18T07:04:58.880Z,93.68
2023-11-18T07:07:29.386Z,93.46
2023-11-18T07:10:00.039Z,93.75
2023-11-18T07:12:30.665Z,94.11
2023-11-18T07:15:04.049Z,94.52
2023-11-18T07:17:36.298Z,94.44
2023-11-18T07:20:07.885Z,93.97
2023-11-18T07:22:38.787Z,93.89
2023-11-18T07:25:10.981Z,93.96
2023-11-18T07:27:41.540Z,93.59
2023-11-18T07:30:15.885Z,92.80
2023-11-18T07:32:46.432Z,93.97
2023-11-18T07:35:17.665Z,94.00
2023-11-18T07:37:48.236Z,93.50
2023-11-18T07:40:23.695Z,94.05
2023-11-18T07:42:54.209Z,95.28
2023-11-18T07:45:28.131Z,94.83
2023-11-18T07:47:58.955Z,94.19
2023-11-18T07:50:29.619Z,93.65
2023-11-18T07:53:00.303Z,92.78
2023-11-18T07:55:30.939Z,92.84
2023-11-18T07:58:01.523Z,93.08
2023-11-18T08:00:37.190Z,94.05
2023-11-18T08:03:13.445Z,94.86
2023-11-18T08:05:45.237Z,95.14
2023-11-18T08:08:18.318Z,95.10
2023-11-18T08:10:49.913Z,94.30
2023-11-18T08:13:20.637Z,94.66
2023-11-18T08:15:53.975Z,94.84
2023-11-18T08:18:25.440Z,94.88
2023-11-18T08:20:56.377Z,95.57
2023-11-18T08:23:28.209Z,96.20
2023-11-18T08:25:59.004Z,96.25
2023-11-18T08:28:29.828Z,96.16
2023-11-18T08:31:03.132Z,95.67
2023-11-18T08:33:34.598Z,94.56
2023-11-18T08:36:05.115Z,93.54
2023-11-18T08:38:36.417Z,92.32
2023-11-18T08:41:10.452Z,91.95
2023-11-18T08:43:42.402Z,91.30
2023-11-18T08:46:15.756Z,92.04
2023-11-18T08:48:46.318Z,91.38
2023-11-18T08:51:17.988Z,90.99
2023-11-18T08:53:49.344Z,90.13
2023-11-18T08:56:21.363Z,90.60
2023-11-18T08:58:53.372Z,89.66
2023-11-18T09:01:29.813Z,88.11
2023-11-18T09:04:03.123Z,86.97
2023-11-18T09:06:35.176Z,86.39
2023-11-18T09:09:11.274Z,85.26
2023-11-18T09:11:43.355Z,84.80
2023-11-18T09:14:13.877Z,83.09
2023-11-18T09:16:47.197Z,82.04
2023-11-18T09:19:17.697Z,81.02
2023-11-18T09:21:48.418Z,79.30
2023-11-18T09:24:21.108Z,80.19
2023-11-18T09:26:52.064Z,81.11
2023-11-18T09:29:26.114Z,81.02
2023-11-18T09:32:00.171Z,82.47
2023-11-18T09:34:34.773Z,83.21
2023-11-18T09:37:05.716Z,81.71
2023-11-18T09:39:47.299Z,80.05
2023-11-18T09:42:20.511Z,80.30
2023-11-18T09:44:52.069Z,81.54
2023-11-18T09:47:34.701Z,80.10
2023-11-18T09:50:13.039Z,78.28
2023-11-18T09:52:53.455Z,76.23
2023-11-18T09:55:37.237Z,76.06
2023-11-18T09:58:14.487Z,74.28
2023-11-18T10:00:46.247Z,75.43
2023-11-18T10:03:19.506Z,75.52
2023-11-18T10:05:50.863Z,75.76
2023-11-18T10:08:27.188Z,76.56
2023-11-18T10:11:06.488Z,77.30
2023-11-18T10:13:42.069Z,77.34
2023-11-18T10:16:13.307Z,78.29
2023-11-18T10:18:50.498Z,79.99
2023-11-18T10:21:23.457Z,81.27
2023-11-18T10:24:06.667Z,82.49
2023-11-18T10:26:39.647Z,82.50
2023-11-18T10:29:10.600Z,83.05
2023-11-18T10:31:46.437Z,82.90
2023-11-18T10:34:20.168Z,83.09
2023-11-18T10:37:08.006Z,82.83
2023-11-18T10:39:39.081Z,82.48
2023-11-18T10:42:09.920Z,82.10
2023-11-18T10:44:41.281Z,81.11
2023-11-18T10:47:13.024Z,79.48
2023-11-18T10:49:47.398Z,76.54
2023-11-18T10:52:18.438Z,72.74
2023-11-18T10:54:56.036Z,71.03
2023-11-18T10:57:27.292Z,69.27
2023-11-18T11:00:05.199Z,67.87
2023-11-18T11:02:40.958Z,68.21
2023-11-18T11:05:21.178Z,69.87
2023-11-18T11:07:53.716Z,69.87
2023-11-18T11:10:29.925Z,69.67
2023-11-18T11:13:06.335Z,70.57
2023-11-18T11:15:48.770Z,71.17
2023-11-18T11:18:29.676Z,69.92
2023-11-18T11:21:17.454Z,66.27
2023-11-18T11:23:57.034Z,62.10
2023-11-18T11:26:41.781Z,60.24
2023-11-18T11:29:34.470Z,60.39
2023-11-18T11:32:20.495Z,61.05
2023-11-18T11:34:58.420Z,60.85
2023-11-18T11:37:36.036Z,59.84
2023-11-18T11:40:11.502Z,55.65
2023-11-18T11:42:44.543Z,52.37
2023-11-18T11:45:21.741Z,48.13
2023-11-18T11:47:55.243Z,45.71
2023-11-18T11:50:33.851Z,46.69
2023-11-18T11:53:16.600Z,48.65
2023-11-18T11:55:54.987Z,49.07
2023-11-18T11:58:32.606Z,49.55
2023-11-18T12:01:09.325Z,50.60
2023-11-18T12:03:46.598Z,49.90
2023-11-18T12:06:17.631Z,48.83
2023-11-18T12:08:52.605Z,47.81
2023-11-18T12:11:24.517Z,48.92
2023-11-18T12:14:14.508Z,44.03
2023-11-18T12:17:09.335Z,40.03
2023-11-18T12:19:46.408Z,37.45
2023-11-18T12:22:19.336Z,34.43
2023-11-18T12:25:38.025Z,32.01
2023-11-18T12:28:17.731Z,32.43
2023-11-18T12:31:04.784Z,31.97
2023-11-18T12:34:11.145Z,33.23
2023-11-18T12:37:31.989Z,35.23
2023-11-18T12:40:45.427Z,37.46
2023-11-18T12:43:20.842Z,34.19
2023-11-18T12:46:28.929Z,31.97
2023-11-18T12:49:02.740Z,31.17
2023-11-18T12:51:33.606Z,31.94
2023-11-18T12:54:08.437Z,34.30
2023-11-18T12:56:45.465Z,33.81
2023-11-18T12:59:19.053Z,32.86
2023-11-18T13:01:55.288Z,32.85
2023-11-18T13:04:26.218Z,32.82
2023-11-18T13:06:57.316Z,34.12
2023-11-18T13:09:36.340Z,36.01
2023-11-18T13:12:11.226Z,37.95
2023-11-18T13:14:43.548Z,39.00
2023-11-18T13:17:17.220Z,40.64
2023-11-18T13:19:49.107Z,41.33
2023-11-18T13:22:20.500Z,45.32
2023-11-18T13:24:51.831Z,46.82
2023-11-18T13:27:27.124Z,49.02
2023-11-18T13:29:58.846Z,50.43
2023-11-18T13:32:29.844Z,51.21
2023-11-18T13:35:00.336Z,51.23
2023-11-18T13:37:31.725Z,52.37
2023-11-18T13:40:04.047Z,54.23
2023-11-18T13:42:40.423Z,55.50
2023-11-18T13:45:30.325Z,56.39
2023-11-18T13:48:07.218Z,56.45
2023-11-18T13:50:39.529Z,58.96
2023-11-18T13:53:12.167Z,59.30
2023-11-18T13:55:43.144Z,61.26
2023-11-18T13:58:16.569Z,61.43
2023-11-18T14:00:47.401Z,61.49
2023-11-18T14:03:18.917Z,61.45
2023-11-18T14:05:49.884Z,62.17
2023-11-18T14:08:23.025Z,63.03
2023-11-18T14:11:02.414Z,63.91
2023-11-18T14:13:37.061Z,63.26
2023-11-18T14:16:11.286Z,62.95
2023-11-18T14:18:43.263Z,62.40
2023-11-18T14:21:15.604Z,63.10
2023-11-18T14:23:46.197Z,63.38
2023-11-18T14:26:16.865Z,63.85
2023-11-18T14:28:50.210Z,63.54
2023-11-18T14:31:21.065Z,63.73
2023-11-18T14:33:51.706Z,64.06
2023-11-18T14:36:23.146Z,64.45
2023-11-18T14:38:53.633Z,64.71
2023-11-18T14:41:29.907Z,65.12
2023-11-18T14:44:05.759Z,65.18
2023-11-18T14:46:38.090Z,65.51
2023-11-18T14:49:11.556Z,65.79
2023-11-18T14:51:42.084Z,66.50
2023-11-18T14:54:12.642Z,66.92
2023-11-18T14:56:43.229Z,67.35
2023-11-18T14:59:16.403Z,68.13
2023-11-18T15:01:47.376Z,69.19
2023-11-18T15:04:18.141Z,69.50
2023-11-18T15:06:50.913Z,69.99
2023-11-18T15:09:23.155Z,70.64
2023-11-18T15:11:54.806Z,71.12
2023-11-18T15:14:29.884Z,71.56
2023-11-18T15:17:00.608Z,71.94
2023-11-18T15:19:31.337Z,72.23
2023-11-18T15:22:03.007Z,72.49
2023-11-18T15:24:33.694Z,72.86
2023-11-18T15:27:05.069Z,73.25
2023-11-18T15:29:39.983Z,73.54
2023-11-18T15:32:10.933Z,73.92
2023-11-18T15:34:41.621Z,74.16
2023-11-18T15:37:12.326Z,74.41
2023-11-18T15:39:43.163Z,74.84
2023-11-18T15:42:15.105Z,75.16
2023-11-18T15:44:45.793Z,74.94
2023-11-18T15:47:18.420Z,75.18
2023-11-18T15:49:48.984Z,75.57
2023-11-18T15:52:19.531Z,75.67
2023-11-18T15:54:50.095Z,75.86
2023-11-18T15:57:22.843Z,75.83
2023-11-18T15:59:55.977Z,75.69
2023-11-18T16:02:26.665Z,75.02
2023-11-18T16:04:57.264Z,75.14
2023-11-18T16:07:27.881Z,75.12
2023-11-18T16:10:00.678Z,75.10
2023-11-18T16:12:32.548Z,75.35
2023-11-18T16:15:07.357Z,75.52
2023-11-18T16:17:38.176Z,75.86
2023-11-18T16:20:10.883Z,75.63
2023-11-18T16:22:42.041Z,75.75
2023-11-18T16:25:12.994Z,75.63
2023-11-18T16:27:43.539Z,76.10
2023-11-18T16:30:18.485Z,76.39
2023-11-18T16:32:50.601Z,75.69
2023-11-18T16:35:21.615Z,75.68
2023-11-18T16:37:53.503Z,74.71
2023-11-18T16:40:25.825Z,74.76
2023-11-18T16:43:01.135Z,74.97
2023-11-18T16:45:34.726Z,74.65
2023-11-18T16:48:06.036Z,74.11
2023-11-18T16:50:37.195Z,74.67
2023-11-18T16:53:07.850Z,74.85
2023-11-18T16:55:38.387Z,73.83
2023-11-18T16:58:09.023Z,73.02
2023-11-18T17:00:42.345Z,73.25
2023-11-18T17:03:13.814Z,74.88
2023-11-18T17:05:44.554Z,73.94
2023-11-18T17:08:15.569Z,74.07
2023-11-18T17:10:53.156Z,73.59
2023-11-18T17:13:24.008Z,73.51
2023-11-18T17:15:57.172Z,73.85
2023-11-18T17:18:27.732Z,74.42
2023-11-18T17:20:58.438Z,74.49
2023-11-18T17:23:34.098Z,74.28
2023-11-18T17:26:10.267Z,74.58
2023-11-18T17:28:45.201Z,74.29
2023-11-18T17:31:25.919Z,74.33
2023-11-18T17:33:56.317Z,74.75
2023-11-18T17:36:31.974Z,74.94
2023-11-18T17:39:15.071Z,74.83
2023-11-18T17:41:56.383Z,74.80
2023-11-18T17:44:28.308Z,74.79
2023-11-18T17:47:17.169Z,74.83
2023-11-18T17:49:52.291Z,74.45
2023-11-18T17:52:45.723Z,74.67
2023-11-18T17:55:36.303Z,74.37
2023-11-18T17:58:08.312Z,74.23
2023-11-18T18:01:04.866Z,73.77
2023-11-18T18:03:44.129Z,73.20
2023-11-18T18:06:17.747Z,73.24
2023-11-18T18:08:48.353Z,73.11
2023-11-18T18:11:21.131Z,73.03
2023-11-18T18:13:53.608Z,72.80
2023-11-18T18:16:26.991Z,72.86
2023-11-18T18:19:10.877Z,72.46
2023-11-18T18:21:49.874Z,72.81
2023-11-18T18:24:21.713Z,74.12
2023-11-18T18:26:55.550Z,72.12
2023-11-18T18:29:37.415Z,72.53
2023-11-18T18:32:13.559Z,72.61
2023-11-18T18:34:50.430Z,72.98
2023-11-18T18:37:23.446Z,72.38
2023-11-18T18:39:54.367Z,72.29
2023-11-18T18:42:26.668Z,72.17
2023-11-18T18:44:58.287Z,71.91
2023-11-18T18:47:30.668Z,72.04
2023-11-18T18:50:07.154Z,72.08
2023-11-18T18:52:37.831Z,72.58
2023-11-18T18:55:10.575Z,72.38
2023-11-18T18:57:41.080Z,72.28
2023-11-18T19:00:14.620Z,72.63
2023-11-18T19:02:51.089Z,72.89
2023-11-18T19:05:24.982Z,73.04
2023-11-18T19:07:59.063Z,72.96
2023-11-18T19:10:29.821Z,73.12
2023-11-18T19:13:01.437Z,72.84
2023-11-18T19:15:35.828Z,72.57
2023-11-18T19:18:07.488Z,73.35
2023-11-18T19:20:43.535Z,73.61
2023-11-18T19:23:14.376Z,73.59
2023-11-18T19:25:49.240Z,73.39
2023-11-18T19:28:23.365Z,73.42
2023-11-18T19:30:54.056Z,73.71
2023-11-18T19:33:24.752Z,73.83
2023-11-18T19:35:58.051Z,73.74
2023-11-18T19:38:29.972Z,73.71
2023-11-18T19:41:01.093Z,74.03
2023-11-18T19:43:31.889Z,74.10
2023-11-18T19:46:09.566Z,74.52
2023-11-18T19:48:40.899Z,75.14
2023-11-18T19:51:17.521Z,75.00
2023-11-18T19:53:50.219Z,74.79
2023-11-18T19:56:28.247Z,74.49
2023-11-18T19:58:58.992Z,74.69
2023-11-18T20:01:30.545Z,74.99
2023-11-18T20:04:03.985Z,75.19
2023-11-18T20:06:37.300Z,75.34
2023-11-18T20:09:11.903Z,76.41
2023-11-18T20:11:53.002Z,75.86
2023-11-18T20:14:23.977Z,75.56
2023-11-18T20:17:00.744Z,75.81
2023-11-18T20:19:34.297Z,75.56
2023-11-18T20:22:10.922Z,75.82
2023-11-18T20:24:48.762Z,75.89
2023-11-18T20:27:27.059Z,76.22
2023-11-18T20:29:58.701Z,76.24
2023-11-18T20:32:32.938Z,76.88
2023-11-18T20:35:04.123Z,77.32
2023-11-18T20:37:39.646Z,77.57
2023-11-18T20:40:19.732Z,77.88
2023-11-18T20:42:50.875Z,78.39
2023-11-18T20:45:22.485Z,78.77
2023-11-18T20:47:53.298Z,79.13
2023-11-18T20:50:37.142Z,79.60
2023-11-18T20:53:16.448Z,79.76
2023-11-18T20:55:47.256Z,79.84
2023-11-18T20:58:18.190Z,80.26
2023-11-18T21:00:48.962Z,81.16
2023-11-18T21:03:20.983Z,81.15
2023-11-18T21:05:55.126Z,81.02
2023-11-18T21:08:28.272Z,81.62
2023-11-18T21:10:58.769Z,82.02
2023-11-18T21:13:29.373Z,82.48
2023-11-18T21:15:59.893Z,83.29
2023-11-18T21:18:30.498Z,84.16
2023-11-18T21:21:02.523Z,85.07
2023-11-18T21:23:35.930Z,85.81
2023-11-18T21:26:06.643Z,87.08
2023-11-18T21:28:38.442Z,88.19
2023-11-18T21:31:10.881Z,89.22
2023-11-18T21:33:41.384Z,90.33
2023-11-18T21:36:15.389Z,91.32
2023-11-18T21:38:53.876Z,92.18
2023-11-18T21:41:25.227Z,92.76
2023-11-18T21:43:55.738Z,93.86
2023-11-18T21:46:26.385Z,95.49
2023-11-18T21:48:56.849Z,95.07
2023-11-18T21:51:27.489Z,96.01
2023-11-18T21:54:00.636Z,95.66
2023-11-18T21:56:36.753Z,96.08
2023-11-18T21:59:08.906Z,97.21
2023-11-18T22:01:40.457Z,97.58
2023-11-18T22:04:11.563Z,97.69
2023-11-18T22:06:42.184Z,97.06
2023-11-18T22:09:16.176Z,97.63
2023-11-18T22:11:46.773Z,97.26
2023-11-18T22:14:17.514Z,98.17
2023-11-18T22:16:51.084Z,98.67
2023-11-18T22:19:21.754Z,97.90
2023-11-18T22:21:52.272Z,98.40
2023-11-18T22:24:25.574Z,97.40
2023-11-18T22:26:57.155Z,97.58
2023-11-18T22:29:27.799Z,96.96
2023-11-18T22:31:58.489Z,96.42
2023-11-18T22:34:29.287Z,96.06
2023-11-18T22:36:59.837Z,96.44
2023-11-18T22:39:36.391Z,97.60
2023-11-18T22:42:08.044Z,97.50
2023-11-18T22:44:39.018Z,97.08
2023-11-18T22:47:10.403Z,96.70
2023-11-18T22:49:41.952Z,96.46
2023-11-18T22:52:12.709Z,96.59
2023-11-18T22:54:45.809Z,95.93
2023-11-18T22:57:16.317Z,95.85
2023-11-18T22:59:47.859Z,95.38
2023-11-18T23:02:20.613Z,95.23
2023-11-18T23:04:58.549Z,95.45
2023-11-18T23:07:29.190Z,95.53
2023-11-18T23:10:02.420Z,95.43
2023-11-18T23:12:34.907Z,95.47
2023-11-18T23:15:07.009Z,95.82
2023-11-18T23:17:37.748Z,95.72
2023-11-18T23:20:12.667Z,95.51
2023-11-18T23:22:43.479Z,95.80
2023-11-18T23:25:17.213Z,95.39
2023-11-18T23:28:00.990Z,95.54
2023-11-18T23:30:32.931Z,95.66
2023-11-18T23:33:08.108Z,95.05
2023-11-18T23:35:38.899Z,94.84
2023-11-18T23:38:09.542Z,95.43
2023-11-18T23:40:43.011Z,95.42
2023-11-18T23:43:13.637Z,95.75
2023-11-18T23:45:44.629Z,95.93
2023-11-18T23:48:19.334Z,95.60
2023-11-18T23:50:52.421Z,94.86
2023-11-18T23:53:22.998Z,94.40
2023-11-18T23:55:56.961Z,94.49
2023-11-18T23:58:27.535Z,94.75
